sensor_id;sensor_type;location;lat;lon;timestamp;P1;durP1;ratioP1;P2;durP2;ratioP2
60853;SDS011;48554;50.766;2.900;2022-12-05T00:00:22;10.47;;;4.97;;
60853;SDS011;48554;50.766;2.900;2022-12-05T00:02:42;8.80;;;4.63;;
60853;SDS011;48554;50.766;2.900;2022-12-05T00:05:02;8.43;;;3.70;;
60853;SDS011;48554;50.766;2.900;2022-12-05T00:07:23;7.40;;;3.80;;
60853;SDS011;48554;50.766;2.900;2022-12-05T00:09:43;7.77;;;3.93;;
60853;SDS011;48554;50.766;2.900;2022-12-05T00:12:03;7.53;;;3.50;;
60853;SDS011;48554;50.766;2.900;2022-12-05T00:14:24;6.93;;;2.80;;
60853;SDS011;48554;50.766;2.900;2022-12-05T00:16:44;9.10;;;4.13;;
60853;SDS011;48554;50.766;2.900;2022-12-05T00:19:05;8.73;;;4.47;;
60853;SDS011;48554;50.766;2.900;2022-12-05T00:21:27;11.13;;;5.45;;
60853;SDS011;48554;50.766;2.900;2022-12-05T00:23:50;11.57;;;5.25;;
60853;SDS011;48554;50.766;2.900;2022-12-05T00:26:12;10.77;;;5.40;;
60853;SDS011;48554;50.766;2.900;2022-12-05T00:28:34;10.57;;;5.27;;
60853;SDS011;48554;50.766;2.900;2022-12-05T00:30:54;10.48;;;5.15;;
60853;SDS011;48554;50.766;2.900;2022-12-05T00:33:14;10.37;;;4.97;;
60853;SDS011;48554;50.766;2.900;2022-12-05T00:35:35;9.97;;;4.73;;
60853;SDS011;48554;50.766;2.900;2022-12-05T00:37:55;9.57;;;4.25;;
60853;SDS011;48554;50.766;2.900;2022-12-05T00:40:15;9.77;;;4.00;;
60853;SDS011;48554;50.766;2.900;2022-12-05T00:42:36;10.63;;;4.97;;
60853;SDS011;48554;50.766;2.900;2022-12-05T00:44:56;9.47;;;4.50;;
60853;SDS011;48554;50.766;2.900;2022-12-05T00:47:16;10.00;;;4.93;;
60853;SDS011;48554;50.766;2.900;2022-12-05T00:49:36;9.43;;;4.10;;
60853;SDS011;48554;50.766;2.900;2022-12-05T00:51:57;10.85;;;5.68;;
60853;SDS011;48554;50.766;2.900;2022-12-05T00:54:17;9.97;;;4.83;;
60853;SDS011;48554;50.766;2.900;2022-12-05T00:56:37;11.87;;;6.27;;
60853;SDS011;48554;50.766;2.900;2022-12-05T00:58:59;10.57;;;5.23;;
60853;SDS011;48554;50.766;2.900;2022-12-05T01:01:24;10.27;;;5.38;;
60853;SDS011;48554;50.766;2.900;2022-12-05T01:03:54;10.23;;;4.82;;
60853;SDS011;48554;50.766;2.900;2022-12-05T01:06:15;9.15;;;4.18;;
60853;SDS011;48554;50.766;2.900;2022-12-05T01:08:36;8.70;;;3.47;;
60853;SDS011;48554;50.766;2.900;2022-12-05T01:10:57;7.80;;;3.60;;
60853;SDS011;48554;50.766;2.900;2022-12-05T01:13:17;9.40;;;4.57;;
60853;SDS011;48554;50.766;2.900;2022-12-05T01:15:37;8.95;;;3.92;;
60853;SDS011;48554;50.766;2.900;2022-12-05T01:17:57;7.83;;;3.50;;
60853;SDS011;48554;50.766;2.900;2022-12-05T01:20:18;8.93;;;4.03;;
60853;SDS011;48554;50.766;2.900;2022-12-05T01:22:38;10.63;;;5.40;;
60853;SDS011;48554;50.766;2.900;2022-12-05T01:24:58;10.57;;;4.68;;
60853;SDS011;48554;50.766;2.900;2022-12-05T01:27:19;8.33;;;4.43;;
60853;SDS011;48554;50.766;2.900;2022-12-05T01:29:39;10.60;;;5.10;;
60853;SDS011;48554;50.766;2.900;2022-12-05T01:31:59;11.57;;;5.33;;
60853;SDS011;48554;50.766;2.900;2022-12-05T01:34:19;11.38;;;5.28;;
60853;SDS011;48554;50.766;2.900;2022-12-05T01:36:40;8.73;;;3.93;;
60853;SDS011;48554;50.766;2.900;2022-12-05T01:39:01;8.67;;;3.97;;
60853;SDS011;48554;50.766;2.900;2022-12-05T01:41:23;10.90;;;4.47;;
60853;SDS011;48554;50.766;2.900;2022-12-05T01:44:59;9.65;;;3.95;;
60853;SDS011;48554;50.766;2.900;2022-12-05T01:46:49;10.50;;;4.50;;
60853;SDS011;48554;50.766;2.900;2022-12-05T01:49:21;8.32;;;3.83;;
60853;SDS011;48554;50.766;2.900;2022-12-05T01:51:46;7.47;;;3.20;;
60853;SDS011;48554;50.766;2.900;2022-12-05T01:54:10;10.18;;;4.47;;
60853;SDS011;48554;50.766;2.900;2022-12-05T01:56:32;10.57;;;5.35;;
60853;SDS011;48554;50.766;2.900;2022-12-05T01:58:54;10.05;;;4.93;;
60853;SDS011;48554;50.766;2.900;2022-12-05T02:01:15;9.32;;;4.72;;
60853;SDS011;48554;50.766;2.900;2022-12-05T02:03:37;9.80;;;4.30;;
60853;SDS011;48554;50.766;2.900;2022-12-05T02:05:57;8.63;;;4.17;;
60853;SDS011;48554;50.766;2.900;2022-12-05T02:08:18;10.50;;;4.55;;
60853;SDS011;48554;50.766;2.900;2022-12-05T02:10:40;10.10;;;4.53;;
60853;SDS011;48554;50.766;2.900;2022-12-05T02:16:00;9.55;;;4.63;;
60853;SDS011;48554;50.766;2.900;2022-12-05T02:23:45;7.25;;;3.20;;
60853;SDS011;48554;50.766;2.900;2022-12-05T02:26:30;9.18;;;4.35;;
60853;SDS011;48554;50.766;2.900;2022-12-05T02:31:43;9.43;;;4.30;;
60853;SDS011;48554;50.766;2.900;2022-12-05T02:34:22;9.68;;;4.40;;
60853;SDS011;48554;50.766;2.900;2022-12-05T02:36:56;9.45;;;3.90;;
60853;SDS011;48554;50.766;2.900;2022-12-05T02:42:07;8.70;;;4.15;;
60853;SDS011;48554;50.766;2.900;2022-12-05T02:44:54;8.95;;;3.75;;
60853;SDS011;48554;50.766;2.900;2022-12-05T02:47:20;7.38;;;3.30;;
60853;SDS011;48554;50.766;2.900;2022-12-05T02:49:44;8.70;;;3.58;;
60853;SDS011;48554;50.766;2.900;2022-12-05T02:52:07;8.52;;;4.13;;
60853;SDS011;48554;50.766;2.900;2022-12-05T02:54:34;7.40;;;3.35;;
60853;SDS011;48554;50.766;2.900;2022-12-05T02:56:57;7.07;;;3.17;;
60853;SDS011;48554;50.766;2.900;2022-12-05T02:59:18;10.85;;;4.50;;
60853;SDS011;48554;50.766;2.900;2022-12-05T03:01:39;12.47;;;3.93;;
60853;SDS011;48554;50.766;2.900;2022-12-05T03:04:03;10.15;;;4.53;;
60853;SDS011;48554;50.766;2.900;2022-12-05T03:06:27;10.18;;;4.72;;
60853;SDS011;48554;50.766;2.900;2022-12-05T03:09:08;9.25;;;3.92;;
60853;SDS011;48554;50.766;2.900;2022-12-05T03:11:46;9.40;;;4.38;;
60853;SDS011;48554;50.766;2.900;2022-12-05T03:14:12;8.93;;;4.05;;
60853;SDS011;48554;50.766;2.900;2022-12-05T03:16:50;9.13;;;4.07;;
60853;SDS011;48554;50.766;2.900;2022-12-05T03:19:29;9.32;;;3.88;;
60853;SDS011;48554;50.766;2.900;2022-12-05T03:22:00;7.97;;;3.90;;
60853;SDS011;48554;50.766;2.900;2022-12-05T03:24:25;8.65;;;3.55;;
60853;SDS011;48554;50.766;2.900;2022-12-05T03:29:54;7.10;;;3.28;;
60853;SDS011;48554;50.766;2.900;2022-12-05T03:37:11;9.50;;;4.28;;
60853;SDS011;48554;50.766;2.900;2022-12-05T03:39:36;9.18;;;4.13;;
60853;SDS011;48554;50.766;2.900;2022-12-05T03:42:11;9.18;;;4.22;;
60853;SDS011;48554;50.766;2.900;2022-12-05T03:44:36;9.43;;;4.15;;
60853;SDS011;48554;50.766;2.900;2022-12-05T03:47:10;7.22;;;3.50;;
60853;SDS011;48554;50.766;2.900;2022-12-05T03:49:44;8.48;;;3.80;;
60853;SDS011;48554;50.766;2.900;2022-12-05T03:52:23;7.47;;;2.92;;
60853;SDS011;48554;50.766;2.900;2022-12-05T03:54:49;8.40;;;3.55;;
60853;SDS011;48554;50.766;2.900;2022-12-05T03:57:14;8.70;;;3.17;;
60853;SDS011;48554;50.766;2.900;2022-12-05T03:59:40;8.23;;;3.78;;
60853;SDS011;48554;50.766;2.900;2022-12-05T04:02:25;10.90;;;4.18;;
60853;SDS011;48554;50.766;2.900;2022-12-05T04:04:52;11.57;;;4.00;;
60853;SDS011;48554;50.766;2.900;2022-12-05T04:07:17;9.90;;;4.57;;
60853;SDS011;48554;50.766;2.900;2022-12-05T04:09:42;9.43;;;4.45;;
60853;SDS011;48554;50.766;2.900;2022-12-05T04:12:10;9.90;;;4.13;;
60853;SDS011;48554;50.766;2.900;2022-12-05T04:14:46;7.45;;;3.60;;
60853;SDS011;48554;50.766;2.900;2022-12-05T04:19:59;10.55;;;4.13;;
60853;SDS011;48554;50.766;2.900;2022-12-05T04:22:22;8.38;;;3.50;;
60853;SDS011;48554;50.766;2.900;2022-12-05T04:24:43;9.43;;;4.10;;
60853;SDS011;48554;50.766;2.900;2022-12-05T04:29:51;10.27;;;3.78;;
60853;SDS011;48554;50.766;2.900;2022-12-05T04:32:12;6.85;;;3.25;;
60853;SDS011;48554;50.766;2.900;2022-12-05T04:34:33;6.68;;;3.42;;
60853;SDS011;48554;50.766;2.900;2022-12-05T04:36:58;8.27;;;4.15;;
60853;SDS011;48554;50.766;2.900;2022-12-05T04:41:50;7.70;;;3.92;;
60853;SDS011;48554;50.766;2.900;2022-12-05T04:44:13;9.13;;;4.35;;
60853;SDS011;48554;50.766;2.900;2022-12-05T04:46:37;8.18;;;3.80;;
60853;SDS011;48554;50.766;2.900;2022-12-05T04:49:00;8.80;;;4.07;;
60853;SDS011;48554;50.766;2.900;2022-12-05T04:51:25;8.50;;;3.97;;
60853;SDS011;48554;50.766;2.900;2022-12-05T04:53:51;7.75;;;3.88;;
60853;SDS011;48554;50.766;2.900;2022-12-05T04:56:16;8.63;;;3.80;;
60853;SDS011;48554;50.766;2.900;2022-12-05T04:58:39;8.43;;;3.83;;
60853;SDS011;48554;50.766;2.900;2022-12-05T05:03:34;7.78;;;4.13;;
60853;SDS011;48554;50.766;2.900;2022-12-05T05:06:01;6.95;;;3.15;;
60853;SDS011;48554;50.766;2.900;2022-12-05T05:08:23;8.90;;;3.93;;
60853;SDS011;48554;50.766;2.900;2022-12-05T05:11:20;7.55;;;3.20;;
60853;SDS011;48554;50.766;2.900;2022-12-05T05:13:40;8.80;;;4.22;;
60853;SDS011;48554;50.766;2.900;2022-12-05T05:16:01;9.43;;;3.93;;
60853;SDS011;48554;50.766;2.900;2022-12-05T05:18:21;8.17;;;3.30;;
60853;SDS011;48554;50.766;2.900;2022-12-05T05:20:42;9.10;;;4.13;;
60853;SDS011;48554;50.766;2.900;2022-12-05T05:23:02;6.97;;;3.27;;
60853;SDS011;48554;50.766;2.900;2022-12-05T05:25:23;9.67;;;3.17;;
60853;SDS011;48554;50.766;2.900;2022-12-05T05:27:48;6.38;;;2.90;;
60853;SDS011;48554;50.766;2.900;2022-12-05T05:30:12;7.40;;;3.35;;
60853;SDS011;48554;50.766;2.900;2022-12-05T05:32:33;7.70;;;3.20;;
60853;SDS011;48554;50.766;2.900;2022-12-05T05:34:53;6.88;;;2.63;;
60853;SDS011;48554;50.766;2.900;2022-12-05T05:37:13;7.90;;;3.17;;
60853;SDS011;48554;50.766;2.900;2022-12-05T05:39:33;6.63;;;2.87;;
60853;SDS011;48554;50.766;2.900;2022-12-05T05:41:54;8.83;;;4.03;;
60853;SDS011;48554;50.766;2.900;2022-12-05T05:44:14;9.25;;;4.30;;
60853;SDS011;48554;50.766;2.900;2022-12-05T05:46:34;8.45;;;3.85;;
60853;SDS011;48554;50.766;2.900;2022-12-05T05:48:55;9.67;;;4.33;;
60853;SDS011;48554;50.766;2.900;2022-12-05T05:51:17;9.03;;;3.97;;
60853;SDS011;48554;50.766;2.900;2022-12-05T05:53:38;8.23;;;3.47;;
60853;SDS011;48554;50.766;2.900;2022-12-05T05:56:05;6.37;;;3.43;;
60853;SDS011;48554;50.766;2.900;2022-12-05T05:58:27;7.13;;;2.97;;
60853;SDS011;48554;50.766;2.900;2022-12-05T06:00:47;5.43;;;3.00;;
60853;SDS011;48554;50.766;2.900;2022-12-05T06:03:07;8.00;;;3.10;;
60853;SDS011;48554;50.766;2.900;2022-12-05T06:05:28;6.37;;;2.83;;
60853;SDS011;48554;50.766;2.900;2022-12-05T06:07:48;6.07;;;2.70;;
60853;SDS011;48554;50.766;2.900;2022-12-05T06:10:08;5.77;;;2.70;;
60853;SDS011;48554;50.766;2.900;2022-12-05T06:12:29;7.87;;;3.37;;
60853;SDS011;48554;50.766;2.900;2022-12-05T06:14:49;6.63;;;3.58;;
60853;SDS011;48554;50.766;2.900;2022-12-05T06:17:10;9.57;;;3.67;;
60853;SDS011;48554;50.766;2.900;2022-12-05T06:19:30;7.37;;;3.30;;
60853;SDS011;48554;50.766;2.900;2022-12-05T06:21:50;7.90;;;3.60;;
60853;SDS011;48554;50.766;2.900;2022-12-05T06:24:10;8.93;;;4.20;;
60853;SDS011;48554;50.766;2.900;2022-12-05T06:26:31;6.80;;;3.23;;
60853;SDS011;48554;50.766;2.900;2022-12-05T06:28:51;8.27;;;3.73;;
60853;SDS011;48554;50.766;2.900;2022-12-05T06:31:16;7.07;;;3.55;;
60853;SDS011;48554;50.766;2.900;2022-12-05T06:33:38;6.88;;;3.30;;
60853;SDS011;48554;50.766;2.900;2022-12-05T06:36:06;7.07;;;3.47;;
60853;SDS011;48554;50.766;2.900;2022-12-05T06:38:28;8.27;;;3.20;;
60853;SDS011;48554;50.766;2.900;2022-12-05T06:40:48;9.43;;;3.80;;
60853;SDS011;48554;50.766;2.900;2022-12-05T06:43:08;12.37;;;4.07;;
60853;SDS011;48554;50.766;2.900;2022-12-05T06:45:29;9.40;;;3.93;;
60853;SDS011;48554;50.766;2.900;2022-12-05T06:47:50;9.50;;;3.63;;
60853;SDS011;48554;50.766;2.900;2022-12-05T06:50:11;9.02;;;3.38;;
60853;SDS011;48554;50.766;2.900;2022-12-05T06:52:31;12.00;;;3.77;;
60853;SDS011;48554;50.766;2.900;2022-12-05T06:54:51;16.87;;;4.40;;
60853;SDS011;48554;50.766;2.900;2022-12-05T06:57:12;9.57;;;3.47;;
60853;SDS011;48554;50.766;2.900;2022-12-05T06:59:32;6.78;;;2.97;;
60853;SDS011;48554;50.766;2.900;2022-12-05T07:01:52;9.17;;;4.10;;
60853;SDS011;48554;50.766;2.900;2022-12-05T07:04:14;12.17;;;4.20;;
60853;SDS011;48554;50.766;2.900;2022-12-05T07:06:37;9.45;;;3.70;;
60853;SDS011;48554;50.766;2.900;2022-12-05T07:08:58;7.68;;;3.10;;
60853;SDS011;48554;50.766;2.900;2022-12-05T07:11:18;8.30;;;3.37;;
60853;SDS011;48554;50.766;2.900;2022-12-05T07:13:39;7.63;;;2.90;;
60853;SDS011;48554;50.766;2.900;2022-12-05T07:15:59;10.00;;;3.50;;
60853;SDS011;48554;50.766;2.900;2022-12-05T07:18:19;9.87;;;3.60;;
60853;SDS011;48554;50.766;2.900;2022-12-05T07:20:40;8.27;;;3.10;;
60853;SDS011;48554;50.766;2.900;2022-12-05T07:23:00;11.07;;;3.38;;
60853;SDS011;48554;50.766;2.900;2022-12-05T07:25:20;7.40;;;3.33;;
60853;SDS011;48554;50.766;2.900;2022-12-05T07:27:41;7.67;;;3.67;;
60853;SDS011;48554;50.766;2.900;2022-12-05T07:30:01;9.57;;;3.00;;
60853;SDS011;48554;50.766;2.900;2022-12-05T07:32:21;8.67;;;3.30;;
60853;SDS011;48554;50.766;2.900;2022-12-05T07:34:42;6.03;;;2.77;;
60853;SDS011;48554;50.766;2.900;2022-12-05T07:37:02;7.53;;;3.20;;
60853;SDS011;48554;50.766;2.900;2022-12-05T07:39:22;7.25;;;3.35;;
60853;SDS011;48554;50.766;2.900;2022-12-05T07:41:43;6.70;;;2.73;;
60853;SDS011;48554;50.766;2.900;2022-12-05T07:44:03;8.90;;;3.97;;
60853;SDS011;48554;50.766;2.900;2022-12-05T07:46:23;9.93;;;3.40;;
60853;SDS011;48554;50.766;2.900;2022-12-05T07:48:44;5.73;;;2.77;;
60853;SDS011;48554;50.766;2.900;2022-12-05T07:51:07;8.32;;;3.28;;
60853;SDS011;48554;50.766;2.900;2022-12-05T07:53:29;9.40;;;3.65;;
60853;SDS011;48554;50.766;2.900;2022-12-05T07:55:50;7.40;;;3.08;;
60853;SDS011;48554;50.766;2.900;2022-12-05T07:58:10;7.70;;;3.73;;
60853;SDS011;48554;50.766;2.900;2022-12-05T08:00:30;8.17;;;3.13;;
60853;SDS011;48554;50.766;2.900;2022-12-05T08:02:51;6.13;;;2.73;;
60853;SDS011;48554;50.766;2.900;2022-12-05T08:05:11;7.93;;;3.57;;
60853;SDS011;48554;50.766;2.900;2022-12-05T08:07:31;6.93;;;3.37;;
60853;SDS011;48554;50.766;2.900;2022-12-05T08:09:51;7.27;;;3.60;;
60853;SDS011;48554;50.766;2.900;2022-12-05T08:12:11;6.77;;;3.07;;
60853;SDS011;48554;50.766;2.900;2022-12-05T08:14:32;8.10;;;2.97;;
60853;SDS011;48554;50.766;2.900;2022-12-05T08:16:52;7.20;;;3.03;;
60853;SDS011;48554;50.766;2.900;2022-12-05T08:19:12;7.33;;;3.20;;
60853;SDS011;48554;50.766;2.900;2022-12-05T08:21:33;6.90;;;2.87;;
60853;SDS011;48554;50.766;2.900;2022-12-05T08:23:54;8.83;;;3.10;;
60853;SDS011;48554;50.766;2.900;2022-12-05T08:26:22;8.82;;;3.28;;
60853;SDS011;48554;50.766;2.900;2022-12-05T08:28:44;6.15;;;3.05;;
60853;SDS011;48554;50.766;2.900;2022-12-05T08:31:08;7.05;;;3.17;;
60853;SDS011;48554;50.766;2.900;2022-12-05T08:33:31;6.68;;;2.97;;
60853;SDS011;48554;50.766;2.900;2022-12-05T08:35:52;6.07;;;2.90;;
60853;SDS011;48554;50.766;2.900;2022-12-05T08:38:12;7.80;;;3.40;;
60853;SDS011;48554;50.766;2.900;2022-12-05T08:40:32;7.13;;;3.07;;
60853;SDS011;48554;50.766;2.900;2022-12-05T08:42:53;8.07;;;3.37;;
60853;SDS011;48554;50.766;2.900;2022-12-05T08:45:13;6.60;;;2.87;;
60853;SDS011;48554;50.766;2.900;2022-12-05T08:47:33;6.67;;;2.83;;
60853;SDS011;48554;50.766;2.900;2022-12-05T08:49:53;5.90;;;2.83;;
60853;SDS011;48554;50.766;2.900;2022-12-05T08:52:14;8.77;;;3.07;;
60853;SDS011;48554;50.766;2.900;2022-12-05T08:54:34;8.80;;;2.80;;
60853;SDS011;48554;50.766;2.900;2022-12-05T08:56:55;6.30;;;2.90;;
60853;SDS011;48554;50.766;2.900;2022-12-05T08:59:15;7.32;;;3.15;;
60853;SDS011;48554;50.766;2.900;2022-12-05T09:01:35;6.10;;;2.87;;
60853;SDS011;48554;50.766;2.900;2022-12-05T09:03:59;6.03;;;2.97;;
60853;SDS011;48554;50.766;2.900;2022-12-05T09:06:21;7.85;;;3.15;;
60853;SDS011;48554;50.766;2.900;2022-12-05T09:08:44;5.88;;;2.95;;
60853;SDS011;48554;50.766;2.900;2022-12-05T09:11:15;10.43;;;3.60;;
60853;SDS011;48554;50.766;2.900;2022-12-05T09:13:37;5.75;;;2.38;;
60853;SDS011;48554;50.766;2.900;2022-12-05T09:15:58;6.30;;;2.70;;
60853;SDS011;48554;50.766;2.900;2022-12-05T09:18:24;6.60;;;2.80;;
60853;SDS011;48554;50.766;2.900;2022-12-05T09:20:44;7.35;;;3.15;;
60853;SDS011;48554;50.766;2.900;2022-12-05T09:23:04;7.53;;;3.28;;
60853;SDS011;48554;50.766;2.900;2022-12-05T09:25:25;6.35;;;3.40;;
60853;SDS011;48554;50.766;2.900;2022-12-05T09:27:45;7.37;;;2.73;;
60853;SDS011;48554;50.766;2.900;2022-12-05T09:30:05;7.75;;;3.45;;
60853;SDS011;48554;50.766;2.900;2022-12-05T09:32:26;6.30;;;3.00;;
60853;SDS011;48554;50.766;2.900;2022-12-05T09:34:46;4.97;;;2.80;;
60853;SDS011;48554;50.766;2.900;2022-12-05T09:37:06;7.43;;;3.20;;
60853;SDS011;48554;50.766;2.900;2022-12-05T09:39:27;6.70;;;2.70;;
60853;SDS011;48554;50.766;2.900;2022-12-05T09:46:59;4.78;;;2.42;;
60853;SDS011;48554;50.766;2.900;2022-12-05T09:49:25;6.97;;;2.80;;
60853;SDS011;48554;50.766;2.900;2022-12-05T09:51:47;6.03;;;3.13;;
60853;SDS011;48554;50.766;2.900;2022-12-05T09:54:09;6.28;;;3.05;;
60853;SDS011;48554;50.766;2.900;2022-12-05T09:56:30;6.97;;;3.25;;
60853;SDS011;48554;50.766;2.900;2022-12-05T09:58:50;6.05;;;2.92;;
60853;SDS011;48554;50.766;2.900;2022-12-05T10:06:42;7.40;;;3.30;;
60853;SDS011;48554;50.766;2.900;2022-12-05T10:17:41;6.70;;;2.88;;
60853;SDS011;48554;50.766;2.900;2022-12-05T10:20:17;6.57;;;2.78;;
60853;SDS011;48554;50.766;2.900;2022-12-05T10:22:57;5.47;;;2.80;;
60853;SDS011;48554;50.766;2.900;2022-12-05T10:25:22;5.97;;;3.08;;
60853;SDS011;48554;50.766;2.900;2022-12-05T10:28:10;6.60;;;2.90;;
60853;SDS011;48554;50.766;2.900;2022-12-05T10:30:34;5.35;;;2.45;;
60853;SDS011;48554;50.766;2.900;2022-12-05T10:32:56;5.30;;;2.70;;
60853;SDS011;48554;50.766;2.900;2022-12-05T10:37:51;5.32;;;2.63;;
60853;SDS011;48554;50.766;2.900;2022-12-05T10:40:22;6.82;;;2.90;;
60853;SDS011;48554;50.766;2.900;2022-12-05T10:42:45;5.05;;;2.63;;
60853;SDS011;48554;50.766;2.900;2022-12-05T10:47:32;6.18;;;3.08;;
60853;SDS011;48554;50.766;2.900;2022-12-05T10:49:55;8.10;;;3.22;;
60853;SDS011;48554;50.766;2.900;2022-12-05T10:52:18;7.60;;;3.10;;
60853;SDS011;48554;50.766;2.900;2022-12-05T10:54:42;7.35;;;3.28;;
60853;SDS011;48554;50.766;2.900;2022-12-05T10:57:18;7.35;;;3.38;;
60853;SDS011;48554;50.766;2.900;2022-12-05T10:59:44;7.28;;;3.05;;
60853;SDS011;48554;50.766;2.900;2022-12-05T11:02:11;6.78;;;3.33;;
60853;SDS011;48554;50.766;2.900;2022-12-05T11:04:41;9.30;;;3.88;;
60853;SDS011;48554;50.766;2.900;2022-12-05T11:07:04;8.40;;;4.22;;
60853;SDS011;48554;50.766;2.900;2022-12-05T11:09:26;7.68;;;3.58;;
60853;SDS011;48554;50.766;2.900;2022-12-05T11:11:56;7.10;;;2.95;;
60853;SDS011;48554;50.766;2.900;2022-12-05T11:14:25;7.00;;;3.13;;
60853;SDS011;48554;50.766;2.900;2022-12-05T11:16:50;6.43;;;3.10;;
60853;SDS011;48554;50.766;2.900;2022-12-05T11:21:41;6.53;;;3.13;;
60853;SDS011;48554;50.766;2.900;2022-12-05T11:24:18;6.93;;;3.00;;
60853;SDS011;48554;50.766;2.900;2022-12-05T11:27:19;7.40;;;3.13;;
60853;SDS011;48554;50.766;2.900;2022-12-05T11:29:41;6.80;;;3.03;;
60853;SDS011;48554;50.766;2.900;2022-12-05T11:32:04;6.38;;;3.33;;
60853;SDS011;48554;50.766;2.900;2022-12-05T11:37:22;7.35;;;3.35;;
60853;SDS011;48554;50.766;2.900;2022-12-05T11:39:45;6.57;;;3.20;;
60853;SDS011;48554;50.766;2.900;2022-12-05T11:42:20;8.20;;;3.47;;
60853;SDS011;48554;50.766;2.900;2022-12-05T11:45:08;6.72;;;3.63;;
60853;SDS011;48554;50.766;2.900;2022-12-05T11:55:45;8.48;;;3.92;;
60853;SDS011;48554;50.766;2.900;2022-12-05T11:58:31;8.90;;;3.75;;
60853;SDS011;48554;50.766;2.900;2022-12-05T12:01:03;8.00;;;3.60;;
60853;SDS011;48554;50.766;2.900;2022-12-05T12:03:57;6.30;;;2.90;;
60853;SDS011;48554;50.766;2.900;2022-12-05T12:14:16;9.18;;;3.03;;
60853;SDS011;48554;50.766;2.900;2022-12-05T12:16:59;7.13;;;3.30;;
60853;SDS011;48554;50.766;2.900;2022-12-05T12:21:50;8.88;;;3.33;;
60853;SDS011;48554;50.766;2.900;2022-12-05T12:24:21;7.43;;;3.13;;
60853;SDS011;48554;50.766;2.900;2022-12-05T12:40:49;8.45;;;3.38;;
60853;SDS011;48554;50.766;2.900;2022-12-05T12:43:22;9.38;;;4.65;;
60853;SDS011;48554;50.766;2.900;2022-12-05T12:48:32;8.95;;;3.53;;
60853;SDS011;48554;50.766;2.900;2022-12-05T12:51:02;6.57;;;2.65;;
60853;SDS011;48554;50.766;2.900;2022-12-05T13:04:12;8.23;;;3.55;;
60853;SDS011;48554;50.766;2.900;2022-12-05T13:06:38;5.43;;;2.72;;
60853;SDS011;48554;50.766;2.900;2022-12-05T13:09:06;6.53;;;2.65;;
60853;SDS011;48554;50.766;2.900;2022-12-05T13:11:42;5.90;;;2.70;;
60853;SDS011;48554;50.766;2.900;2022-12-05T13:14:10;6.20;;;2.60;;
60853;SDS011;48554;50.766;2.900;2022-12-05T13:16:34;6.55;;;3.22;;
60853;SDS011;48554;50.766;2.900;2022-12-05T13:18:58;6.35;;;2.50;;
60853;SDS011;48554;50.766;2.900;2022-12-05T13:21:19;6.07;;;2.77;;
60853;SDS011;48554;50.766;2.900;2022-12-05T13:23:41;6.70;;;3.07;;
60853;SDS011;48554;50.766;2.900;2022-12-05T13:26:07;7.22;;;2.63;;
60853;SDS011;48554;50.766;2.900;2022-12-05T13:28:39;7.47;;;3.00;;
60853;SDS011;48554;50.766;2.900;2022-12-05T13:31:08;9.07;;;4.13;;
60853;SDS011;48554;50.766;2.900;2022-12-05T13:33:31;7.60;;;3.70;;
60853;SDS011;48554;50.766;2.900;2022-12-05T13:36:39;8.88;;;4.18;;
60853;SDS011;48554;50.766;2.900;2022-12-05T13:38:37;4.53;;;2.13;;
60853;SDS011;48554;50.766;2.900;2022-12-05T13:40:59;6.05;;;2.30;;
60853;SDS011;48554;50.766;2.900;2022-12-05T13:43:24;3.05;;;1.55;;
60853;SDS011;48554;50.766;2.900;2022-12-05T13:45:57;5.20;;;2.15;;
60853;SDS011;48554;50.766;2.900;2022-12-05T13:48:27;4.45;;;1.95;;
60853;SDS011;48554;50.766;2.900;2022-12-05T13:50:51;6.80;;;2.58;;
60853;SDS011;48554;50.766;2.900;2022-12-05T13:55:56;6.53;;;2.92;;
60853;SDS011;48554;50.766;2.900;2022-12-05T14:00:42;6.00;;;2.55;;
60853;SDS011;48554;50.766;2.900;2022-12-05T14:03:06;6.10;;;2.63;;
60853;SDS011;48554;50.766;2.900;2022-12-05T14:15:36;5.95;;;2.35;;
60853;SDS011;48554;50.766;2.900;2022-12-05T14:34:29;6.05;;;2.55;;
60853;SDS011;48554;50.766;2.900;2022-12-05T14:36:53;5.32;;;2.28;;
60853;SDS011;48554;50.766;2.900;2022-12-05T14:42:01;7.15;;;2.72;;
60853;SDS011;48554;50.766;2.900;2022-12-05T14:44:26;5.45;;;2.40;;
60853;SDS011;48554;50.766;2.900;2022-12-05T14:51:55;5.15;;;2.65;;
60853;SDS011;48554;50.766;2.900;2022-12-05T14:54:16;6.55;;;2.33;;
60853;SDS011;48554;50.766;2.900;2022-12-05T14:56:41;5.25;;;2.80;;
60853;SDS011;48554;50.766;2.900;2022-12-05T14:59:05;5.68;;;2.47;;
60853;SDS011;48554;50.766;2.900;2022-12-05T15:01:42;5.88;;;2.45;;
60853;SDS011;48554;50.766;2.900;2022-12-05T15:06:32;6.75;;;2.70;;
60853;SDS011;48554;50.766;2.900;2022-12-05T15:08:56;5.82;;;2.05;;
60853;SDS011;48554;50.766;2.900;2022-12-05T15:11:17;4.65;;;2.42;;
60853;SDS011;48554;50.766;2.900;2022-12-05T15:13:41;7.32;;;3.38;;
60853;SDS011;48554;50.766;2.900;2022-12-05T15:16:19;7.03;;;3.33;;
60853;SDS011;48554;50.766;2.900;2022-12-05T15:18:43;6.25;;;2.72;;
60853;SDS011;48554;50.766;2.900;2022-12-05T15:21:20;5.75;;;2.83;;
60853;SDS011;48554;50.766;2.900;2022-12-05T15:23:45;5.07;;;2.25;;
60853;SDS011;48554;50.766;2.900;2022-12-05T15:26:16;4.50;;;2.22;;
60853;SDS011;48554;50.766;2.900;2022-12-05T15:28:36;5.38;;;2.88;;
60853;SDS011;48554;50.766;2.900;2022-12-05T15:30:57;6.30;;;2.35;;
60853;SDS011;48554;50.766;2.900;2022-12-05T15:33:17;4.53;;;2.25;;
60853;SDS011;48554;50.766;2.900;2022-12-05T15:35:37;6.88;;;2.72;;
60853;SDS011;48554;50.766;2.900;2022-12-05T15:38:19;6.50;;;2.75;;
60853;SDS011;48554;50.766;2.900;2022-12-05T15:40:44;5.43;;;2.45;;
60853;SDS011;48554;50.766;2.900;2022-12-05T15:43:26;4.10;;;1.80;;
60853;SDS011;48554;50.766;2.900;2022-12-05T15:45:48;5.05;;;2.30;;
60853;SDS011;48554;50.766;2.900;2022-12-05T15:48:10;5.50;;;2.47;;
60853;SDS011;48554;50.766;2.900;2022-12-05T15:56:08;7.43;;;2.70;;
60853;SDS011;48554;50.766;2.900;2022-12-05T15:58:45;5.18;;;2.15;;
60853;SDS011;48554;50.766;2.900;2022-12-05T16:01:11;6.40;;;2.45;;
60853;SDS011;48554;50.766;2.900;2022-12-05T16:03:45;6.53;;;3.42;;
60853;SDS011;48554;50.766;2.900;2022-12-05T16:06:21;7.43;;;3.13;;
60853;SDS011;48554;50.766;2.900;2022-12-05T16:08:47;5.40;;;2.53;;
60853;SDS011;48554;50.766;2.900;2022-12-05T16:11:09;6.45;;;2.58;;
60853;SDS011;48554;50.766;2.900;2022-12-05T16:13:30;5.90;;;2.40;;
60853;SDS011;48554;50.766;2.900;2022-12-05T16:15:51;3.58;;;1.88;;
60853;SDS011;48554;50.766;2.900;2022-12-05T16:18:26;4.25;;;1.83;;
60853;SDS011;48554;50.766;2.900;2022-12-05T16:20:48;5.97;;;2.50;;
60853;SDS011;48554;50.766;2.900;2022-12-05T16:23:25;5.20;;;2.17;;
60853;SDS011;48554;50.766;2.900;2022-12-05T16:25:47;5.32;;;2.03;;
60853;SDS011;48554;50.766;2.900;2022-12-05T16:30:29;4.40;;;1.90;;
60853;SDS011;48554;50.766;2.900;2022-12-05T16:32:56;4.10;;;2.15;;
60853;SDS011;48554;50.766;2.900;2022-12-05T16:40:28;3.58;;;1.73;;
60853;SDS011;48554;50.766;2.900;2022-12-05T16:42:59;4.30;;;2.13;;
60853;SDS011;48554;50.766;2.900;2022-12-05T16:45:36;4.22;;;1.92;;
60853;SDS011;48554;50.766;2.900;2022-12-05T16:47:59;3.60;;;1.95;;
60853;SDS011;48554;50.766;2.900;2022-12-05T16:50:30;4.93;;;2.37;;
60853;SDS011;48554;50.766;2.900;2022-12-05T16:52:59;3.65;;;1.85;;
60853;SDS011;48554;50.766;2.900;2022-12-05T16:55:20;5.53;;;2.55;;
60853;SDS011;48554;50.766;2.900;2022-12-05T16:57:40;5.43;;;2.53;;
60853;SDS011;48554;50.766;2.900;2022-12-05T17:00:01;6.10;;;2.70;;
60853;SDS011;48554;50.766;2.900;2022-12-05T17:02:21;3.93;;;2.10;;
60853;SDS011;48554;50.766;2.900;2022-12-05T17:04:41;4.83;;;2.27;;
60853;SDS011;48554;50.766;2.900;2022-12-05T17:07:02;4.07;;;1.97;;
60853;SDS011;48554;50.766;2.900;2022-12-05T17:09:22;4.80;;;2.10;;
60853;SDS011;48554;50.766;2.900;2022-12-05T17:11:43;4.27;;;2.23;;